Time;durP1;ratioP1;P1;durP2;ratioP2;P2;SDS_P1;SDS_P2;PMS_P1;PMS_P2;Temp;Humidity;BMP_temperature;BMP_pressure;BME280_temperature;BME280_humidity;BME280_pressure;Samples;Min_cycle;Max_cycle;Signal;HPM_P1;HPM_P2
2021/09/07 04:28:49;;;;;;;23.42;14.20;;;;;;;5.96;86.70;99071.05;1871614;76;22662;-60
2021/09/07 04:31:18;;;;;;;19.42;11.95;;;;;;;5.91;86.73;99073.63;1827793;78;20954;-60
2021/09/07 04:33:45;;;;;;;19.80;12.35;;;;;;;5.97;86.81;99075.33;1827872;78;21163;-60
2021/09/07 04:36:14;;;;;;;21.65;14.53;;;;;;;6.07;86.91;99068.91;1827758;78;20880;-60
2021/09/07 04:38:40;;;;;;;25.62;14.53;;;;;;;6.20;86.96;99072.09;1827866;78;20852;-60
2021/09/07 04:41:08;;;;;;;23.70;14.05;;;;;;;6.35;86.84;99071.59;1827706;78;20958;-60
2021/09/07 04:43:35;;;;;;;21.20;13.08;;;;;;;6.49;86.69;99066.28;1827853;78;20836;-60
2021/09/07 04:46:02;;;;;;;19.77;12.85;;;;;;;6.64;86.45;99065.76;1827824;78;21102;-59
2021/09/07 04:48:30;;;;;;;21.62;13.20;;;;;;;6.75;86.12;99072.36;1827719;78;20829;-59
2021/09/07 04:50:59;;;;;;;21.45;13.53;;;;;;;6.82;85.96;99066.88;1827846;78;20935;-59
2021/09/07 04:53:26;;;;;;;21.50;13.43;;;;;;;6.89;85.69;99068.34;1827818;78;20971;-61
2021/09/07 04:55:53;;;;;;;21.33;13.62;;;;;;;6.98;85.56;99067.93;1827844;78;21402;-60
2021/09/07 04:58:22;;;;;;;23.20;14.18;;;;;;;7.09;85.31;99072.40;1827956;78;21113;-61
2021/09/07 05:00:51;;;;;;;21.87;14.47;;;;;;;7.13;85.07;99066.34;1827795;78;20951;-60
2021/09/07 05:03:18;;;;;;;22.55;13.88;;;;;;;7.21;84.88;99071.25;1827679;78;20962;-60
2021/09/07 05:05:45;;;;;;;26.10;15.28;;;;;;;7.29;84.62;99072.72;1828215;78;21025;-60
2021/09/07 05:08:12;;;;;;;25.02;14.73;;;;;;;7.34;84.42;99076.80;1828198;78;21446;-60
2021/09/07 05:10:39;;;;;;;20.52;13.90;;;;;;;7.42;84.22;99085.70;1827803;78;21063;-60
2021/09/07 05:13:07;;;;;;;28.38;14.13;;;;;;;7.48;84.08;99081.56;1827979;78;21102;-59
2021/09/07 05:15:34;;;;;;;22.70;15.00;;;;;;;7.54;83.91;99083.76;1807359;78;20880;-59
2021/09/07 05:18:03;;;;;;;23.75;14.47;;;;;;;7.62;83.62;99082.02;1827667;78;20931;-60
2021/09/07 05:20:30;;;;;;;22.42;13.93;;;;;;;7.71;83.38;99083.22;1827862;78;20888;-59
2021/09/07 05:22:57;;;;;;;24.57;14.03;;;;;;;7.78;83.12;99079.03;1828170;78;21098;-60
2021/09/07 05:25:26;;;;;;;26.12;14.65;;;;;;;7.84;82.78;99082.88;1827719;78;20859;-60
2021/09/07 05:27:53;;;;;;;22.62;12.50;;;;;;;7.92;82.56;99086.45;1821512;78;20829;-60
2021/09/07 05:30:24;;;;;;;22.00;13.10;;;;;;;8.00;82.34;99082.03;1816707;78;21426;-60
2021/09/07 05:32:52;;;;;;;21.65;13.48;;;;;;;8.12;82.13;99080.05;1816589;78;20935;-60
2021/09/07 05:35:18;;;;;;;23.98;13.15;;;;;;;8.29;81.95;99086.67;1817084;79;21406;-60
2021/09/07 05:37:46;;;;;;;27.62;14.10;;;;;;;8.47;81.56;99084.22;1816429;79;20963;-60
2021/09/07 05:40:13;;;;;;;20.37;12.45;;;;;;;8.66;81.35;99089.52;1805162;79;21368;-60
2021/09/07 05:42:43;;;;;;;20.88;12.43;;;;;;;8.84;80.97;99084.63;1815916;78;20908;-60
2021/09/07 05:45:13;;;;;;;20.35;12.40;;;;;;;9.02;80.27;99086.11;1816211;79;21043;-59
2021/09/07 05:47:40;;;;;;;28.17;13.53;;;;;;;9.15;79.66;99082.23;1815618;78;21122;-60
2021/09/07 05:50:09;;;;;;;23.95;13.72;;;;;;;9.28;79.48;99079.92;1815997;79;20963;-60
2021/09/07 05:52:36;;;;;;;22.15;13.00;;;;;;;9.42;79.20;99078.43;1815900;79;21556;-60
2021/09/07 05:55:04;;;;;;;25.92;13.32;;;;;;;9.57;78.83;99078.55;1815905;79;20841;-60
2021/09/07 05:57:31;;;;;;;24.57;13.70;;;;;;;9.75;78.57;99079.20;1815934;79;20960;-61
2021/09/07 05:59:59;;;;;;;26.68;14.35;;;;;;;9.94;78.10;99084.41;1815897;79;20989;-59
2021/09/07 06:02:26;;;;;;;25.35;14.58;;;;;;;10.12;77.64;99081.31;1791224;77;20967;-59
2021/09/07 06:04:54;;;;;;;22.40;15.03;;;;;;;10.28;77.35;99085.66;1790756;79;20972;-60
2021/09/07 06:07:21;;;;;;;26.17;14.87;;;;;;;10.42;76.80;99085.45;1815860;78;20889;-60
2021/09/07 06:09:48;;;;;;;19.98;13.32;;;;;;;10.57;76.31;99088.19;1816109;78;21367;-61
2021/09/07 06:12:16;;;;;;;20.75;12.50;;;;;;;10.71;75.62;99085.80;1801940;79;21098;-60
2021/09/07 06:14:44;;;;;;;17.73;11.28;;;;;;;10.84;74.96;99088.78;1783645;80;20844;-60
2021/09/07 06:17:12;;;;;;;18.57;10.90;;;;;;;10.98;74.41;99083.70;1786485;79;20968;-60
2021/09/07 06:19:40;;;;;;;20.37;10.13;;;;;;;11.12;73.85;99086.66;1794413;78;20889;-60
2021/09/07 06:22:07;;;;;;;16.20;9.68;;;;;;;11.28;73.22;99085.63;1788234;79;20892;-62
2021/09/07 06:24:34;;;;;;;18.48;9.03;;;;;;;11.45;72.76;99088.81;1783930;79;21639;-59
2021/09/07 06:27:00;;;;;;;12.45;8.78;;;;;;;11.62;72.28;99088.81;1783615;79;21360;-60
2021/09/07 06:29:27;;;;;;;16.48;9.23;;;;;;;11.80;71.56;99094.17;1787206;79;21113;-61
2021/09/07 06:31:55;;;;;;;12.15;8.53;;;;;;;11.96;70.84;99090.41;1759804;80;20966;-60
2021/09/07 06:34:25;;;;;;;14.43;8.53;;;;;;;12.09;70.04;99092.50;1744773;82;21474;-60
2021/09/07 06:36:55;;;;;;;13.00;7.50;;;;;;;12.19;69.36;99088.45;1746546;82;21793;-58
2021/09/07 06:39:22;;;;;;;13.70;7.35;;;;;;;12.27;68.88;99091.89;1760056;79;20971;-59
2021/09/07 06:41:49;;;;;;;13.22;6.75;;;;;;;12.34;68.64;99083.56;1762472;80;20915;-62
2021/09/07 06:44:18;;;;;;;14.55;7.42;;;;;;;12.41;67.67;99085.95;1750251;79;21473;-59
2021/09/07 06:46:45;;;;;;;14.05;7.80;;;;;;;12.46;67.38;99091.30;1777136;79;21611;-58
2021/09/07 06:49:12;;;;;;;16.12;7.37;;;;;;;12.51;67.66;99089.91;1798615;79;21471;-59
2021/09/07 06:51:39;;;;;;;10.18;7.10;;;;;;;12.57;67.53;99084.27;1802333;79;21069;-59
2021/09/07 06:54:06;;;;;;;10.72;7.40;;;;;;;12.67;67.25;99094.16;1769142;79;20974;-60
2021/09/07 06:56:34;;;;;;;10.85;7.28;;;;;;;12.80;67.05;99098.91;1758442;79;20935;-59
2021/09/07 06:59:01;;;;;;;10.58;6.53;;;;;;;12.93;66.92;99095.06;1776138;79;21034;-60
2021/09/07 07:01:31;;;;;;;11.55;6.97;;;;;;;13.09;66.63;99090.97;1778775;79;21732;-58
2021/09/07 07:03:59;;;;;;;14.23;7.65;;;;;;;13.26;66.41;99093.51;1758692;79;21014;-59
2021/09/07 07:06:33;;;;;;;12.50;6.45;;;;;;;13.40;66.03;99086.41;1766767;80;20998;-60
2021/09/07 07:09:04;;;;;;;11.48;7.17;;;;;;;13.57;65.27;99085.99;1760364;79;21030;-60
2021/09/07 07:11:37;;;;;;;12.95;6.75;;;;;;;13.68;64.75;99086.95;1791688;79;20911;-61
2021/09/07 07:14:06;;;;;;;11.70;7.12;;;;;;;13.79;64.42;99089.02;1755837;79;21147;-62
2021/09/07 07:16:34;;;;;;;11.63;6.85;;;;;;;13.89;64.19;99087.58;1775259;79;21522;-60
2021/09/07 07:19:03;;;;;;;11.08;7.03;;;;;;;13.99;63.99;99088.02;1774264;80;21067;-60
2021/09/07 07:21:30;;;;;;;10.20;6.60;;;;;;;14.06;63.87;99093.87;1753428;79;21113;-60
2021/09/07 07:23:57;;;;;;;10.38;6.15;;;;;;;14.11;63.46;99091.91;1758668;80;21086;-60
2021/09/07 07:26:23;;;;;;;9.90;5.90;;;;;;;14.13;62.20;99093.77;1775375;80;21119;-61
2021/09/07 07:28:51;;;;;;;14.33;6.40;;;;;;;14.13;62.39;99087.59;1780965;80;21622;-59
2021/09/07 07:31:19;;;;;;;11.30;6.50;;;;;;;14.20;62.61;99094.80;1783911;80;21556;-59
2021/09/07 07:33:46;;;;;;;12.37;8.40;;;;;;;14.29;62.75;99091.18;1772630;80;21044;-60
2021/09/07 07:36:14;;;;;;;10.98;6.70;;;;;;;14.44;62.65;99085.38;1817593;77;20911;-58
2021/09/07 07:38:41;;;;;;;11.55;6.83;;;;;;;14.54;62.97;99080.64;1819915;78;22081;-59
2021/09/07 07:41:07;;;;;;;9.38;6.10;;;;;;;14.63;62.51;99076.20;1824231;77;20947;-60
2021/09/07 07:43:36;;;;;;;11.38;7.12;;;;;;;14.68;62.23;99080.19;1815201;78;21047;-60
2021/09/07 07:46:03;;;;;;;13.32;8.15;;;;;;;14.73;62.24;99085.52;1789733;78;21437;-59
2021/09/07 07:48:30;;;;;;;16.37;7.78;;;;;;;14.77;62.51;99082.48;1779081;80;20995;-58
2021/09/07 07:50:58;;;;;;;12.60;6.83;;;;;;;14.81;62.81;99082.18;1771796;80;21130;-60
2021/09/07 07:53:25;;;;;;;15.95;6.67;;;;;;;14.87;61.60;99086.40;1817064;78;20865;-61
2021/09/07 07:55:53;;;;;;;11.60;6.33;;;;;;;14.93;61.63;99093.31;1820905;77;20986;-59
2021/09/07 07:58:21;;;;;;;9.30;6.25;;;;;;;14.97;61.47;99099.75;1791596;78;21111;-60
2021/09/07 08:00:48;;;;;;;8.93;5.97;;;;;;;15.03;61.42;99096.41;1752833;80;21019;-59
2021/09/07 08:03:14;;;;;;;10.72;6.05;;;;;;;15.10;61.11;99100.11;1729482;81;21258;-59
2021/09/07 08:05:41;;;;;;;9.60;5.78;;;;;;;15.20;61.09;99099.94;1746304;81;20928;-59
2021/09/07 08:08:08;;;;;;;9.60;5.87;;;;;;;15.32;60.97;99101.64;1765398;80;21151;-63
2021/09/07 08:10:36;;;;;;;19.67;6.97;;;;;;;15.43;61.10;99099.84;1821234;77;21079;-60
2021/09/07 08:13:05;;;;;;;10.55;6.00;;;;;;;15.56;60.44;99101.02;1783622;80;21525;-61
2021/09/07 08:15:32;;;;;;;9.35;6.05;;;;;;;15.63;60.11;99104.14;1793087;78;21203;-58
2021/09/07 08:17:59;;;;;;;10.72;5.72;;;;;;;15.70;60.14;99099.16;1749910;80;21049;-59
2021/09/07 08:20:29;;;;;;;10.85;5.72;;;;;;;15.78;59.94;99102.50;1776994;79;20944;-65
2021/09/07 08:22:56;;;;;;;9.65;5.60;;;;;;;15.88;59.62;99100.98;1783631;78;21085;-59
2021/09/07 08:25:23;;;;;;;8.98;5.28;;;;;;;16.03;59.28;99099.37;1772115;78;20923;-58
2021/09/07 08:27:50;;;;;;;10.65;5.17;;;;;;;16.21;59.04;99106.58;1779709;78;21129;-60
2021/09/07 08:30:19;;;;;;;10.88;5.37;;;;;;;16.36;58.31;99102.23;1784525;78;20993;-59
2021/09/07 08:32:46;;;;;;;7.92;5.08;;;;;;;16.47;57.86;99097.41;1797295;78;21469;-58
2021/09/07 08:35:14;;;;;;;9.48;5.37;;;;;;;16.53;57.54;99096.80;1826164;78;20999;-59
2021/09/07 08:37:44;;;;;;;7.20;4.85;;;;;;;16.57;57.03;99101.30;1819433;77;21033;-58
2021/09/07 08:40:14;;;;;;;7.90;5.00;;;;;;;16.61;57.00;99097.42;1785191;78;21302;-58
2021/09/07 08:42:41;;;;;;;11.78;5.03;;;;;;;16.62;56.78;99103.09;1770291;78;21019;-59
2021/09/07 08:45:12;;;;;;;8.65;5.05;;;;;;;16.62;56.67;99096.33;1778985;78;21057;-59
2021/09/07 08:47:39;;;;;;;7.20;4.90;;;;;;;16.62;56.16;99093.63;1809788;77;21651;-59
2021/09/07 08:50:08;;;;;;;9.60;5.25;;;;;;;16.65;56.66;99091.67;1806175;78;21094;-59
2021/09/07 08:52:35;;;;;;;9.45;4.95;;;;;;;16.68;57.52;99084.28;1783831;80;21686;-58
2021/09/07 08:55:04;;;;;;;7.95;4.92;;;;;;;16.71;57.14;99081.79;1784322;80;21052;-59
2021/09/07 08:57:31;;;;;;;10.38;4.87;;;;;;;16.75;57.61;99084.13;1783984;80;21089;-58
2021/09/07 09:00:05;;;;;;;10.68;4.87;;;;;;;16.79;57.89;99079.70;1746289;80;21003;-59
2021/09/07 09:02:43;;;;;;;12.15;5.45;;;;;;;16.88;57.41;99082.50;1760851;80;21082;-59
2021/09/07 09:05:11;;;;;;;16.07;5.50;;;;;;;16.98;57.04;99086.34;1783430;80;21070;-58
2021/09/07 09:07:38;;;;;;;5.30;3.45;;;;;;;17.06;56.01;99091.01;1782594;80;21033;-59
2021/09/07 09:10:07;;;;;;;7.92;3.30;;;;;;;17.12;52.98;99083.04;1820531;78;20976;-58
2021/09/07 09:12:39;;;;;;;6.92;3.20;;;;;;;17.19;51.92;99082.06;1821098;78;21479;-59
2021/09/07 09:15:23;;;;;;;4.30;2.98;;;;;;;17.26;51.11;99077.02;1821703;78;20996;-58
2021/09/07 09:17:47;;;;;;;6.75;3.52;;;;;;;17.37;50.96;99078.36;1790424;78;21053;-59
2021/09/07 09:20:17;;;;;;;7.58;3.47;;;;;;;17.50;50.46;99073.42;1814934;78;21028;-58
2021/09/07 09:22:53;;;;;;;6.37;3.52;;;;;;;17.64;49.50;99066.62;1817161;78;20875;-59
2021/09/07 09:25:25;;;;;;;4.85;2.67;;;;;;;17.80;49.43;99061.59;1816344;77;21048;-59
2021/09/07 09:28:03;;;;;;;7.45;3.20;;;;;;;17.97;48.75;99064.40;1775286;78;21121;-60
2021/09/07 09:30:37;;;;;;;8.08;5.25;;;;;;;18.07;48.16;99065.45;1759657;78;21664;-59
2021/09/07 09:33:05;;;;;;;9.33;4.90;;;;;;;18.30;47.16;99057.51;1822355;77;22651;-59
2021/09/07 09:35:48;;;;;;;5.22;3.25;;;;;;;18.30;47.16;99057.51;1754289;81;21039;-59
2021/09/07 09:38:16;;;;;;;8.78;3.05;;;;;;;18.41;46.20;99054.73;1770818;80;20919;-58
2021/09/07 09:40:44;;;;;;;4.97;2.45;;;;;;;18.52;45.48;99066.10;1783686;80;21387;-59
2021/09/07 09:43:24;;;;;;;4.53;2.50;;;;;;;18.54;45.11;99059.25;1823813;78;21109;-58
2021/09/07 09:45:52;;;;;;;6.03;3.17;;;;;;;18.60;44.77;99068.05;1823715;78;20948;-59
2021/09/07 09:48:29;;;;;;;7.87;2.77;;;;;;;18.63;45.38;99060.64;1824113;78;21462;-58
2021/09/07 09:50:58;;;;;;;7.92;3.55;;;;;;;18.66;44.84;99062.15;1824355;77;20952;-59
2021/09/07 09:53:26;;;;;;;7.10;3.00;;;;;;;18.73;45.05;99073.33;1824660;78;21104;-57
2021/09/07 09:55:58;;;;;;;6.97;3.20;;;;;;;18.78;44.81;99068.31;1824657;77;21310;-58
2021/09/07 09:58:26;;;;;;;5.10;2.95;;;;;;;18.78;44.53;99070.47;1779345;79;21067;-58
2021/09/07 10:00:53;;;;;;;5.05;2.62;;;;;;;18.75;44.29;99062.95;1762737;80;20986;-58
2021/09/07 10:03:22;;;;;;;4.50;3.08;;;;;;;18.70;44.49;99063.10;1765435;79;20906;-58
2021/09/07 10:05:49;;;;;;;6.67;2.75;;;;;;;18.69;45.16;99062.88;1754296;81;21021;-60
2021/09/07 10:08:17;;;;;;;7.85;3.50;;;;;;;18.74;45.48;99065.45;1753116;81;21810;-58
2021/09/07 10:11:09;;;;;;;7.67;3.10;;;;;;;18.83;45.25;99063.53;1753872;81;20955;-59
2021/09/07 10:13:36;;;;;;;6.05;3.30;;;;;;;18.89;45.37;99059.53;1754420;80;21017;-57
2021/09/07 10:16:10;;;;;;;6.78;3.45;;;;;;;18.99;45.31;99061.94;1746784;80;21015;-59
2021/09/07 10:18:49;;;;;;;7.13;3.40;;;;;;;19.06;45.04;99059.55;1784822;80;21551;-58
2021/09/07 10:24:16;;;;;;;6.17;3.92;;;;;;;19.31;45.46;99057.95;1771150;80;21833;-61
2021/09/07 10:26:44;;;;;;;9.15;4.97;;;;;;;19.38;44.71;99046.62;1754691;80;20962;-58
2021/09/07 10:29:19;;;;;;;6.42;3.27;;;;;;;19.42;44.97;99040.77;1779351;79;21059;-58
2021/09/07 10:31:49;;;;;;;8.18;2.95;;;;;;;19.47;44.15;99047.39;1778954;80;21615;-59
2021/09/07 10:34:18;;;;;;;7.75;3.72;;;;;;;19.52;44.45;99040.44;1820932;78;21046;-59
2021/09/07 10:36:59;;;;;;;7.72;3.33;;;;;;;19.56;43.89;99039.47;1799662;78;21025;-58
2021/09/07 10:39:33;;;;;;;4.75;3.15;;;;;;;19.58;43.19;99043.20;1815926;77;20929;-58
2021/09/07 10:42:02;;;;;;;6.22;2.80;;;;;;;19.61;43.93;99042.57;1810389;78;20946;-61
2021/09/07 10:44:36;;;;;;;8.48;2.42;;;;;;;19.69;43.72;99039.02;1771575;79;21010;-58
2021/09/07 10:47:07;;;;;;;5.43;2.63;;;;;;;19.77;42.98;99037.65;1772092;79;21125;-59
2021/09/07 10:49:44;;;;;;;9.75;3.33;;;;;;;19.85;43.13;99029.78;1823547;78;21018;-61
2021/09/07 10:52:31;;;;;;;3.83;2.40;;;;;;;19.92;41.62;99030.88;1819795;78;21195;-59
2021/09/07 10:55:09;;;;;;;4.05;2.20;;;;;;;19.94;41.22;99032.70;1820226;78;21643;-56
2021/09/07 10:57:43;;;;;;;7.90;3.42;;;;;;;19.94;41.60;99023.75;1820686;77;21038;-58
2021/09/07 11:00:29;;;;;;;6.97;2.87;;;;;;;20.00;41.68;99021.07;1776934;79;21152;-58
2021/09/07 11:03:01;;;;;;;6.33;2.75;;;;;;;20.11;41.37;99025.03;1758170;81;21380;-58
2021/09/07 11:05:36;;;;;;;8.63;2.90;;;;;;;20.16;40.91;99027.58;1735337;82;21077;-58
2021/09/07 11:08:21;;;;;;;7.62;2.58;;;;;;;20.14;40.55;99015.65;1771388;80;20955;-57
2021/09/07 11:10:53;;;;;;;5.35;2.40;;;;;;;20.13;41.01;99016.79;1761530;80;21065;-58
2021/09/07 11:13:29;;;;;;;4.95;2.65;;;;;;;20.13;41.48;99009.99;1758518;81;21125;-57
2021/09/07 11:16:01;;;;;;;7.00;2.50;;;;;;;20.21;41.12;99018.65;1754482;81;21011;-59
2021/09/07 11:18:34;;;;;;;6.90;2.33;;;;;;;20.31;41.28;99018.31;1770936;81;21024;-59
2021/09/07 11:21:09;;;;;;;4.87;2.30;;;;;;;20.43;41.18;99008.88;1812048;78;20908;-59
2021/09/07 11:23:39;;;;;;;4.33;2.10;;;;;;;20.59;40.80;99009.08;1767031;79;21446;-59
2021/09/07 11:26:16;;;;;;;5.17;2.70;;;;;;;20.71;40.32;99000.98;1803885;78;21232;-59
2021/09/07 11:28:50;;;;;;;2.95;2.30;;;;;;;20.83;40.31;99005.70;1815275;78;20871;-59
2021/09/07 11:31:21;;;;;;;5.62;2.62;;;;;;;20.89;39.82;99001.08;1811205;78;21001;-59
2021/09/07 11:33:53;;;;;;;6.70;2.67;;;;;;;20.94;39.47;98994.63;1787830;79;21490;-59
2021/09/07 11:36:22;;;;;;;4.75;2.77;;;;;;;21.02;40.04;99001.94;1817710;78;21422;-60
2021/09/07 11:38:51;;;;;;;4.97;2.45;;;;;;;21.16;39.46;99000.31;1809931;77;21253;-60
2021/09/07 11:41:23;;;;;;;8.85;2.80;;;;;;;21.27;38.79;98993.33;1813713;77;21006;-58
2021/09/07 11:43:53;;;;;;;9.90;2.87;;;;;;;21.33;39.32;98998.23;1812345;78;20999;-62
2021/09/07 11:46:34;;;;;;;4.08;2.55;;;;;;;21.43;39.70;98996.42;1810978;78;21022;-59
2021/09/07 11:49:08;;;;;;;7.37;2.75;;;;;;;21.60;38.75;98985.33;1823648;78;21521;-59
2021/09/07 11:51:38;;;;;;;6.45;2.60;;;;;;;21.80;39.14;98984.47;1834898;78;21895;-65
2021/09/07 11:54:07;;;;;;;7.83;2.45;;;;;;;21.95;38.42;98987.69;1826463;78;21013;-62
2021/09/07 11:56:37;;;;;;;6.03;2.50;;;;;;;22.00;37.71;98986.10;1769764;79;20896;-62
2021/09/07 11:59:17;;;;;;;4.78;2.50;;;;;;;22.05;37.99;98977.66;1772336;79;20988;-61
2021/09/07 12:01:50;;;;;;;8.15;3.27;;;;;;;22.18;37.63;98981.99;1749039;81;21006;-60
2021/09/07 12:04:18;;;;;;;11.60;3.60;;;;;;;22.25;36.66;98987.67;1798774;78;21039;-60
2021/09/07 12:06:51;;;;;;;5.40;2.60;;;;;;;22.24;36.81;98976.52;1791763;79;20982;-62
2021/09/07 12:09:31;;;;;;;6.90;2.77;;;;;;;22.32;37.43;98975.61;1744968;80;20887;-63
2021/09/07 12:12:08;;;;;;;5.60;2.58;;;;;;;22.44;37.18;98966.04;1749757;81;20988;-62
2021/09/07 12:14:45;;;;;;;10.98;3.30;;;;;;;22.56;36.92;98964.66;1740932;82;20948;-63
2021/09/07 12:17:17;;;;;;;6.45;2.40;;;;;;;22.64;37.71;98969.19;1797957;78;21029;-63
2021/09/07 12:19:52;;;;;;;5.55;2.60;;;;;;;22.81;37.19;98960.73;1811091;79;20951;-62
2021/09/07 12:22:24;;;;;;;7.03;2.50;;;;;;;22.89;35.66;98965.23;1811515;79;20909;-62
2021/09/07 12:25:12;;;;;;;4.85;2.70;;;;;;;22.89;35.66;98965.23;1810716;79;21387;-63
2021/09/07 12:27:54;;;;;;;7.75;2.65;;;;;;;22.90;35.97;98960.00;1801487;79;21438;-63
2021/09/07 12:30:28;;;;;;;7.05;2.98;;;;;;;23.00;35.39;98960.88;1815713;77;21528;-62
2021/09/07 12:33:05;;;;;;;;;;;;;;;23.00;35.21;98960.88;1804159;78;20958;-61
2021/09/07 12:35:39;;;;;;;7.60;2.47;;;;;;;22.98;35.52;98960.44;1834716;78;20263;-61
2021/09/07 12:38:15;;;;;;;4.53;2.30;;;;;;;22.98;34.69;98959.07;1828514;78;20885;-61
2021/09/07 12:40:52;;;;;;;4.10;2.58;;;;;;;22.98;35.43;98953.61;1815806;79;20878;-62
2021/09/07 12:43:23;;;;;;;6.25;2.80;;;;;;;23.04;35.54;98959.03;1815463;79;21700;-61
2021/09/07 12:45:53;;;;;;;6.80;2.90;;;;;;;23.04;35.83;98955.50;1815692;79;20980;-62
2021/09/07 12:48:20;;;;;;;6.25;2.60;;;;;;;23.09;36.11;98947.86;1779347;79;20919;-62
2021/09/07 12:50:47;;;;;;;4.58;2.52;;;;;;;23.25;36.35;98942.41;1777105;80;21497;-62
2021/09/07 12:53:16;;;;;;;4.25;2.40;;;;;;;23.42;34.32;98947.58;1776911;79;20904;-63
2021/09/07 12:55:43;;;;;;;4.80;2.45;;;;;;;23.39;33.85;98949.64;1772001;80;21822;-62
2021/09/07 12:58:10;;;;;;;5.95;2.75;;;;;;;23.36;34.00;98952.30;1733165;82;21030;-62
2021/09/07 13:00:37;;;;;;;6.62;2.87;;;;;;;23.38;33.24;98950.00;1785992;79;20956;-64
2021/09/07 13:03:04;;;;;;;5.70;2.45;;;;;;;23.35;33.48;98946.59;1779369;79;20844;-62
2021/09/07 13:05:32;;;;;;;4.72;2.52;;;;;;;23.33;33.47;98943.39;1808974;79;21451;-63
2021/09/07 13:08:00;;;;;;;7.12;3.00;;;;;;;23.37;34.18;98938.84;1798934;79;21006;-61
2021/09/07 13:10:31;;;;;;;6.55;2.52;;;;;;;23.49;33.34;98949.13;1775054;80;20949;-61
2021/09/07 13:12:58;;;;;;;6.58;2.42;;;;;;;23.53;33.71;98946.50;1740058;81;20896;-62
2021/09/07 13:15:35;;;;;;;8.50;2.77;;;;;;;23.65;33.84;98938.19;1793530;79;21521;-62
2021/09/07 13:18:04;;;;;;;8.23;2.60;;;;;;;23.77;33.35;98939.47;1792360;80;20989;-60
2021/09/07 13:20:34;;;;;;;7.97;2.47;;;;;;;23.81;33.53;98937.63;1792326;80;20914;-61
2021/09/07 13:23:02;;;;;;;6.22;2.75;;;;;;;23.83;33.54;98932.59;1793040;80;20923;-62
2021/09/07 13:25:29;;;;;;;6.78;3.10;;;;;;;23.84;33.75;98932.80;1793011;80;20991;-61
2021/09/07 13:27:56;;;;;;;7.80;2.60;;;;;;;23.89;34.14;98927.06;1792253;80;21112;-60
2021/09/07 13:30:23;;;;;;;5.40;2.55;;;;;;;24.00;33.78;98930.83;1793862;79;20867;-60
2021/09/07 13:32:50;;;;;;;6.03;2.83;;;;;;;24.04;33.71;98925.45;1793445;80;22817;-61
2021/09/07 13:35:19;;;;;;;4.30;2.52;;;;;;;24.05;34.39;98927.83;1793488;80;20915;-61
2021/09/07 13:37:46;;;;;;;7.85;2.90;;;;;;;24.07;33.69;98924.19;1792883;80;20910;-60
2021/09/07 13:40:14;;;;;;;6.15;3.10;;;;;;;24.05;33.92;98922.92;1793505;80;20891;-63
2021/09/07 13:42:42;;;;;;;3.33;2.58;;;;;;;24.09;33.83;98919.17;1793475;80;20899;-62
2021/09/07 13:45:10;;;;;;;4.80;2.70;;;;;;;24.10;34.27;98919.37;1793814;79;21815;-62
2021/09/07 13:47:37;;;;;;;4.37;2.70;;;;;;;24.20;34.58;98918.03;1793568;80;21128;-64
2021/09/07 13:50:05;;;;;;;6.50;2.77;;;;;;;24.36;34.16;98909.98;1793507;80;20914;-61
2021/09/07 13:52:32;;;;;;;6.55;2.80;;;;;;;24.62;33.72;98912.09;1793503;80;21461;-62
2021/09/07 13:54:59;;;;;;;5.95;2.52;;;;;;;24.80;32.75;98906.41;1793552;80;20982;-62
2021/09/07 13:57:25;;;;;;;5.50;2.42;;;;;;;24.81;32.52;98905.84;1793824;80;21410;-62
2021/09/07 13:59:52;;;;;;;4.08;2.30;;;;;;;24.85;33.03;98909.44;1793449;80;20903;-63
2021/09/07 14:02:19;;;;;;;6.58;2.92;;;;;;;24.88;32.38;98907.34;1793453;80;20875;-63
2021/09/07 14:04:46;;;;;;;6.45;2.55;;;;;;;24.92;31.94;98902.72;1792827;80;21042;-62
2021/09/07 14:07:16;;;;;;;5.80;3.75;;;;;;;24.94;32.10;98899.84;1792304;80;20874;-63
2021/09/07 14:09:42;;;;;;;8.48;3.70;;;;;;;25.04;32.35;98902.56;1793773;80;21079;-63
2021/09/07 14:12:11;;;;;;;5.37;2.52;;;;;;;25.26;31.54;98903.17;1793457;80;20911;-62
2021/09/07 14:14:39;;;;;;;7.80;2.83;;;;;;;25.26;31.54;98903.17;1793537;80;21468;-63
2021/09/07 14:17:06;;;;;;;8.70;2.62;;;;;;;25.28;31.93;98895.37;1793680;80;20914;-63
2021/09/07 14:19:33;;;;;;;5.83;2.77;;;;;;;25.35;31.81;98892.75;1793534;80;20879;-63
2021/09/07 14:22:01;;;;;;;3.80;2.27;;;;;;;25.39;31.49;98892.83;1793498;80;21115;-63
2021/09/07 14:24:28;;;;;;;5.67;2.50;;;;;;;25.32;31.59;98894.84;1793547;80;21476;-62
2021/09/07 14:26:56;;;;;;;6.55;2.50;;;;;;;25.22;32.24;98891.36;1792811;80;20992;-63
2021/09/07 14:29:23;;;;;;;6.22;3.25;;;;;;;25.13;32.04;98888.07;1793361;80;20890;-62
2021/09/07 14:31:50;;;;;;;4.85;2.90;;;;;;;25.18;32.22;98896.57;1793467;80;20985;-62
2021/09/07 14:34:17;;;;;;;3.70;2.80;;;;;;;25.23;32.36;98890.19;1793672;80;21103;-62
2021/09/07 14:36:44;;;;;;;5.35;3.40;;;;;;;25.27;32.38;98891.06;1793431;80;20903;-63
2021/09/07 14:39:10;;;;;;;4.17;3.10;;;;;;;25.23;32.34;98894.30;1793490;80;21006;-63
2021/09/07 14:41:39;;;;;;;9.33;3.20;;;;;;;25.23;32.34;98894.30;1793348;80;20946;-63
2021/09/07 14:44:07;;;;;;;5.65;3.27;;;;;;;25.29;32.89;98887.38;1793550;80;21430;-64
2021/09/07 14:46:33;;;;;;;8.55;3.75;;;;;;;25.35;31.20;98887.27;1793472;80;21109;-61
2021/09/07 14:49:00;;;;;;;8.48;5.70;;;;;;;25.32;31.96;98881.14;1793387;80;21011;-61
2021/09/07 14:51:27;;;;;;;9.70;4.17;;;;;;;25.38;32.27;98885.17;1793400;80;20995;-61
2021/09/07 14:53:53;;;;;;;6.65;3.40;;;;;;;25.49;32.00;98884.80;1793384;80;20887;-60
2021/09/07 14:56:20;;;;;;;9.35;3.62;;;;;;;25.58;31.74;98890.02;1793570;80;20942;-61
2021/09/07 14:58:47;;;;;;;7.65;4.20;;;;;;;25.66;32.36;98895.27;1793462;80;21056;-61
2021/09/07 15:01:13;;;;;;;13.80;5.28;;;;;;;25.71;31.72;98888.11;1793379;80;20867;-60
